CW6020 Teulada ES current weather conditions

sailwx.info

Air temperature 10.6° C
Dewpoint 2.1° C

Last reported at 2015-Mar-26 18:51 UTC.
Time now 2015-Mar-26 19:17 UTC

Location: N 38°44' E 000°06'.
View on Google Maps.

See reports from other nearby stations

  
Tides and Currents Weather Stations Pressure Air Temp Water Temp Dewpoint Dewpoint Depression Visibility Wind Speed Wind Dir Waves Ship Positions
date/time (UTC)wind fromknots sea level pressurealtimeterstation pressurevisibilityair tempwater tempwave heightnotes
2015-Mar-26 18:51 10.6
2015-Mar-26 18:41 11.1
2015-Mar-26 18:31 135 11.1
2015-Mar-26 18:21 11.1
2015-Mar-26 18:11 135 0 gusting 2 11.1
2015-Mar-26 18:01 135 2 gusting 4 11.1
2015-Mar-26 17:51 135 2 gusting 6 11.1
2015-Mar-26 17:41 135 2 gusting 5 11.7
2015-Mar-26 17:31 135 1 gusting 4 11.7
2015-Mar-26 17:21 135 5 gusting 7 12.2
2015-Mar-26 17:11 135 5 gusting 8 13.3
2015-Mar-26 17:01 135 4 gusting 6 13.9
2015-Mar-26 16:51 270 3 gusting 6 13.9
2015-Mar-26 16:41 315 4 gusting 6 14.4
2015-Mar-26 16:31 180 5 gusting 7 14.4
2015-Mar-26 16:21 135 6 gusting 10 14.4
2015-Mar-26 16:11 135 5 gusting 7 15.0
2015-Mar-26 16:01 135 3 gusting 6 15.0
2015-Mar-26 15:51 135 3 gusting 6 14.4
2015-Mar-26 15:41 135 5 gusting 7 14.4
2015-Mar-26 15:31 135 6 gusting 8 15.0
2015-Mar-26 15:21 090 6 gusting 10 15.0
2015-Mar-26 15:11 180 5 gusting 7 15.0
2015-Mar-26 15:01 180 4 gusting 6 15.6
2015-Mar-26 14:51 180 4 gusting 7 16.1
2015-Mar-26 14:41 180 6 gusting 12 17.2
2015-Mar-26 14:31 247 2 gusting 3 18.9
2015-Mar-26 14:21 247 0 gusting 2 18.9
2015-Mar-26 14:11 247 18.9
2015-Mar-26 14:01 247 2 gusting 3 18.3
2015-Mar-26 13:51 247 1 gusting 2 18.3
2015-Mar-26 13:41 247 1 gusting 5 18.3
2015-Mar-26 13:31 247 17.8
2015-Mar-26 13:21 225 0 gusting 1 16.7
2015-Mar-26 13:11 225 2 gusting 4 16.7
2015-Mar-26 13:01 225 1 gusting 3 16.7
2015-Mar-26 12:51 225 1 gusting 2 16.7
2015-Mar-26 12:41 225 2 gusting 5 17.2
2015-Mar-26 12:31 225 4 gusting 5 16.7
2015-Mar-26 12:21 225 5 gusting 10 16.7
2015-Mar-26 12:11 135 1 gusting 3 16.1
2015-Mar-26 12:01 090 2 gusting 4 15.6
2015-Mar-26 11:51 315 2 gusting 5 15.0
2015-Mar-26 11:41 180 2 gusting 5 15.0
2015-Mar-26 11:31 090 0 gusting 2 15.6
2015-Mar-26 11:21 090 0 gusting 2 15.0
2015-Mar-26 11:11 090 1 gusting 5 14.4
2015-Mar-26 11:01 067 2 gusting 6 14.4
2015-Mar-26 10:46 045 4 gusting 7 13.3
2015-Mar-26 10:36 315 2 gusting 4 13.3
2015-Mar-26 10:26 315 0 gusting 2 13.3
2015-Mar-26 10:16 315 2 gusting 3 12.8
2015-Mar-26 10:06 337 0 gusting 2 12.8
2015-Mar-26 09:56 315 2 gusting 6 12.8
2015-Mar-26 09:46 315 2 gusting 6 12.2
2015-Mar-26 09:36 315 2 gusting 6 11.7
2015-Mar-26 09:26 315 4 gusting 7 11.7
2015-Mar-26 09:16 11.1
2015-Mar-26 09:06 180 2 gusting 6 10.6
2015-Mar-26 08:56 180 3 gusting 6 10.6
2015-Mar-26 08:46 090 2 gusting 6 10.0
2015-Mar-26 08:36 067 3 gusting 5 10.0
2015-Mar-26 08:26 9.4
2015-Mar-26 08:16 045 2 gusting 6 9.4
2015-Mar-26 08:06 8.9
2015-Mar-26 07:56 315 2 gusting 5 8.3
2015-Mar-26 07:46 315 1 gusting 5 8.3
2015-Mar-26 07:36 315 0 gusting 2 7.8
2015-Mar-26 07:26 315 2 gusting 4 7.8
2015-Mar-26 07:16 337 2 gusting 6 7.8
2015-Mar-26 07:06 315 2 gusting 6 7.2
2015-Mar-26 06:56 7.2
2015-Mar-26 06:46 315 2 gusting 3 7.2
2015-Mar-26 06:36 315 2 gusting 5 6.7
2015-Mar-26 06:26 337 1 gusting 3 7.2
2015-Mar-26 06:16 6.7
2015-Mar-26 06:06 337 1 gusting 3 7.2
2015-Mar-26 05:56 315 2 gusting 6 6.7
2015-Mar-26 05:46 315 3 gusting 5 6.7
2015-Mar-26 05:36 315 5 gusting 6 6.7
2015-Mar-26 05:26 337 2 gusting 3 6.7
2015-Mar-26 05:16 315 2 gusting 3 6.7
2015-Mar-26 05:06 337 2 gusting 7 6.7
2015-Mar-26 04:56 315 2 gusting 4 7.2
2015-Mar-26 04:46 315 2 gusting 5 7.2
2015-Mar-26 04:36 7.2
2015-Mar-26 04:26 7.2
2015-Mar-26 04:16 7.2
2015-Mar-26 04:06 315 2 gusting 4 7.2
2015-Mar-26 03:56 7.2
2015-Mar-26 03:46 7.2
2015-Mar-26 03:36 7.2
2015-Mar-26 03:26 7.2
2015-Mar-26 03:16 7.2
2015-Mar-26 03:06 7.8
2015-Mar-26 02:56 7.8
2015-Mar-26 02:46 7.8
2015-Mar-26 02:36 7.8
2015-Mar-26 02:26 315 1 gusting 3 7.8
2015-Mar-26 02:16 315 2 gusting 5 7.8
2015-Mar-26 02:06 7.8
2015-Mar-26 01:56 7.8
2015-Mar-26 01:46 7.2
2015-Mar-26 01:36 7.2
2015-Mar-26 01:26 7.8
2015-Mar-26 01:16 7.8
2015-Mar-26 01:06 7.8
2015-Mar-26 00:56 7.8
2015-Mar-26 00:46 337 8.3
2015-Mar-26 00:36 315 0 gusting 1 8.3
2015-Mar-26 00:26 315 8.3
2015-Mar-26 00:16 315 8.3
2015-Mar-26 00:06 315 8.3
2015-Mar-25 23:56 315 8.3
2015-Mar-25 23:46 315 8.3
2015-Mar-25 23:36 315 0 gusting 2 8.9
2015-Mar-25 23:26 337 2 gusting 4 8.9
2015-Mar-25 23:16 337 9.4
2015-Mar-25 23:06 9.4
2015-Mar-25 22:56 9.4
2015-Mar-25 22:46 9.4
2015-Mar-25 22:36 10.0
2015-Mar-25 22:26 10.0
2015-Mar-25 22:16 10.0
2015-Mar-25 22:06 10.0
2015-Mar-25 21:56 10.0
2015-Mar-25 21:46 10.0
2015-Mar-25 21:36 10.0
2015-Mar-25 21:26 10.0
2015-Mar-25 21:16 10.0
2015-Mar-25 21:06 10.0
2015-Mar-25 20:56 10.0
2015-Mar-25 20:46 10.0
2015-Mar-25 20:36 10.0
2015-Mar-25 20:26 10.0
2015-Mar-25 20:16 10.0
2015-Mar-25 20:06 10.6
2015-Mar-25 19:56 10.6
2015-Mar-25 19:46 10.6
2015-Mar-25 19:36 10.6
2015-Mar-25 19:26 10.6
2015-Mar-25 19:16 10.6
2015-Mar-25 19:06 11.1
2015-Mar-25 18:56 11.1
2015-Mar-25 18:46 11.1
2015-Mar-25 18:36 11.1
2015-Mar-25 18:26 11.1
2015-Mar-25 18:16 11.7
2015-Mar-25 18:06 11.7
2015-Mar-25 17:56 12.2
2015-Mar-25 17:46 12.2
2015-Mar-25 17:36 12.8
2015-Mar-25 17:26 292 0 gusting 2 12.8
2015-Mar-25 17:16 13.3
2015-Mar-25 17:06 13.3
2015-Mar-25 16:56 13.9
2015-Mar-25 16:46 13.9
2015-Mar-25 16:36 14.4
2015-Mar-25 16:26 15.0
2015-Mar-25 16:16 15.0
2015-Mar-25 16:06 14.4
2015-Mar-25 15:56 14.4
2015-Mar-25 15:46 15.6
2015-Mar-25 15:36 16.7
2015-Mar-25 15:26 16.1
2015-Mar-25 15:16 270 1 gusting 3 15.6
2015-Mar-25 15:06 15.0
2015-Mar-25 14:56 15.6
2015-Mar-25 14:46 15.0
2015-Mar-25 14:36 14.4
2015-Mar-25 14:26 14.4
2015-Mar-25 14:16 337 2 gusting 4 14.4
2015-Mar-25 14:06 292 1 gusting 2 14.4
2015-Mar-25 13:56 337 1 gusting 2 13.9
2015-Mar-25 13:46 13.9
2015-Mar-25 13:36 13.9
2015-Mar-25 13:26 13.9
2015-Mar-25 13:16 292 2 gusting 4 14.4
2015-Mar-25 13:06 13.9
2015-Mar-25 12:56 13.9
2015-Mar-25 12:46 13.3
2015-Mar-25 12:36 12.8
2015-Mar-25 12:26 045 0 gusting 1 11.7
2015-Mar-25 12:16 090 1 gusting 3 11.7
2015-Mar-25 12:06 315 4 gusting 5 11.1
2015-Mar-25 11:56 11.1
2015-Mar-25 11:46 315 6 gusting 10 11.7
2015-Mar-25 11:36 180 3 gusting 5 12.2
2015-Mar-25 11:26 180 1 gusting 5 12.2
2015-Mar-25 11:16 090 2 gusting 3 12.2
2015-Mar-25 11:06 180 0 gusting 2 11.7
2015-Mar-25 10:56 090 3 gusting 5 11.7
2015-Mar-25 10:49 045 2 gusting 3 11.1
2015-Mar-25 10:36 090 2 gusting 6 10.6
2015-Mar-25 10:26 090 2 gusting 5 10.6
2015-Mar-25 10:16 292 3 gusting 7 10.0
2015-Mar-25 10:06 270 3 gusting 6 10.0
2015-Mar-25 09:56 270 2 gusting 6 10.0
2015-Mar-25 09:46 270 1 gusting 3 9.4
2015-Mar-25 09:36 270 2 gusting 5 9.4
2015-Mar-25 09:26 9.4
2015-Mar-25 09:16 225 3 gusting 6 9.4
2015-Mar-25 09:06 270 4 gusting 6 10.0
2015-Mar-25 08:56 315 2 gusting 11 10.0
2015-Mar-25 08:46 10.0
2015-Mar-25 08:36 10.0
2015-Mar-25 08:26 9.4
2015-Mar-25 08:16 270 2 gusting 7 9.4
2015-Mar-25 08:06 315 2 gusting 5 9.4
2015-Mar-25 07:56 9.4
2015-Mar-25 07:46 9.4
2015-Mar-25 07:36 337 9.4
2015-Mar-25 07:26 315 2 gusting 5 9.4
2015-Mar-25 07:16 315 0 gusting 2 9.4
2015-Mar-25 07:06 315 2 gusting 3 10.0
2015-Mar-25 06:56 315 2 gusting 3 10.0
2015-Mar-25 06:46 10.0
2015-Mar-25 06:36 315 0 gusting 1 10.0
2015-Mar-25 06:26 315 0 gusting 1 10.0
2015-Mar-25 06:16 10.0
2015-Mar-25 06:06 090 2 gusting 4 10.0
2015-Mar-25 05:56 090 7 gusting 10 10.0
2015-Mar-25 05:46 045 0 gusting 3 10.0
2015-Mar-25 05:36 315 0 gusting 2 10.0
2015-Mar-25 05:26 090 1 gusting 3 10.0
2015-Mar-25 05:16 270 1 gusting 5 10.0
2015-Mar-25 05:06 180 5 gusting 6 10.0
2015-Mar-25 04:56 315 5 gusting 11 10.0
2015-Mar-25 04:46 315 2 gusting 5 10.0
2015-Mar-25 04:36 315 0 gusting 2 10.0
2015-Mar-25 04:26 10.0
2015-Mar-25 04:16 045 10.0
2015-Mar-25 04:06 045 10.0
2015-Mar-25 03:56 045 2 gusting 5 10.0
2015-Mar-25 03:46 10.0
2015-Mar-25 03:36 10.0
2015-Mar-25 03:26 10.0
2015-Mar-25 03:16 10.0
2015-Mar-25 03:06 090 5 gusting 7 9.4
2015-Mar-25 02:56 9.4
2015-Mar-25 02:46 045 2 gusting 5 9.4
2015-Mar-25 02:36 9.4
2015-Mar-25 02:26 315 0 gusting 2 9.4
2015-Mar-25 02:16 337 1 gusting 2 9.4
2015-Mar-25 02:06 270 2 gusting 4 9.4
2015-Mar-25 01:56 045 2 gusting 5 9.4
2015-Mar-25 01:46 090 2 gusting 4 9.4
2015-Mar-25 01:36 315 0 gusting 4 9.4
2015-Mar-25 01:26 180 4 gusting 7 9.4
2015-Mar-25 01:16 045 4 gusting 6 9.4
2015-Mar-25 01:06 9.4
2015-Mar-25 00:56 270 1 gusting 4 9.4
2015-Mar-25 00:46 045 2 gusting 4 9.4
2015-Mar-25 00:36 315 2 gusting 5 9.4
2015-Mar-25 00:26 045 4 gusting 6 9.4
2015-Mar-25 00:16 292 4 gusting 9 10.0
2015-Mar-25 00:06 270 5 gusting 7 10.0
2015-Mar-24 23:56 225 4 gusting 6 10.0
2015-Mar-24 23:46 135 5 gusting 7 10.6
2015-Mar-24 23:36 135 3 gusting 5 10.6
2015-Mar-24 23:26 315 6 gusting 13 10.6
2015-Mar-24 23:16 11.1
2015-Mar-24 23:06 11.1
2015-Mar-24 22:56 180 1 gusting 3 11.1
2015-Mar-24 22:46 225 1 gusting 5 10.6
2015-Mar-24 22:36 225 1 gusting 3 10.6
2015-Mar-24 22:26 225 1 gusting 2 10.6
2015-Mar-24 22:16 225 0 gusting 2 10.6
2015-Mar-24 22:06 225 1 gusting 4 10.6
2015-Mar-24 21:56 225 1 gusting 2 10.6
2015-Mar-24 21:46 090 4 gusting 7 10.6
2015-Mar-24 21:36 315 1 gusting 3 10.6
2015-Mar-24 21:26 225 0 gusting 1 10.6
2015-Mar-24 21:16 11.1
2015-Mar-24 21:06 11.1
2015-Mar-24 20:56 292 0 gusting 2 11.1
2015-Mar-24 20:46 11.1
2015-Mar-24 20:36 11.1
2015-Mar-24 20:26 11.1
2015-Mar-24 20:16 11.7
2015-Mar-24 20:06 11.7
2015-Mar-24 19:56 11.7
2015-Mar-24 19:46 11.7
2015-Mar-24 19:36 045 0 gusting 1 11.7
2015-Mar-24 19:26 225 1 gusting 2 11.7
2015-Mar-24 19:16 045 1 gusting 3 11.7
2015-Mar-24 19:06 045 0 gusting 2 11.7